Time;durP1;ratioP1;P1;durP2;ratioP2;P2;SDS_P1;SDS_P2;PMS_P1;PMS_P2;Temp;Humidity;BMP_temperature;BMP_pressure;BME280_temperature;BME280_humidity;BME280_pressure;Samples;Min_cycle;Max_cycle;Signal;HPM_P1;HPM_P2
2022/03/07 00:01:09;;;;;;;15.70;10.25;;;0.20;99.90;;;;;;5040918;28;20053;-60
2022/03/07 00:03:35;;;;;;;16.23;10.85;;;0.20;99.90;;;;;;5039186;28;20807;-60
2022/03/07 00:06:01;;;;;;;14.68;9.55;;;0.20;99.90;;;;;;5029747;28;20067;-60
2022/03/07 00:08:28;;;;;;;13.98;9.75;;;0.20;99.90;;;;;;5042005;28;20056;-59
2022/03/07 00:10:54;;;;;;;11.88;8.27;;;0.10;99.90;;;;;;5041253;28;20139;-59
2022/03/07 00:13:21;;;;;;;12.93;9.82;;;0.10;99.90;;;;;;5042512;28;20049;-60
2022/03/07 00:15:47;;;;;;;15.30;10.82;;;0.10;99.90;;;;;;5042093;28;20052;-60
2022/03/07 00:18:13;;;;;;;14.55;10.68;;;0.00;99.90;;;;;;5042294;28;20485;-61
2022/03/07 00:20:39;;;;;;;12.52;10.45;;;0.10;99.90;;;;;;5043230;28;20049;-61
2022/03/07 00:23:05;;;;;;;13.98;9.30;;;0.00;99.90;;;;;;5039546;28;20049;-60
2022/03/07 00:25:31;;;;;;;13.93;8.85;;;0.00;99.90;;;;;;5024770;28;20155;-60
2022/03/07 00:27:57;;;;;;;14.52;9.27;;;-0.10;99.90;;;;;;5043212;28;20099;-61
2022/03/07 00:30:23;;;;;;;12.10;9.18;;;-0.10;99.90;;;;;;5011544;28;20063;-60
2022/03/07 00:32:50;;;;;;;13.30;8.43;;;-0.10;99.90;;;;;;5050144;28;20048;-60
2022/03/07 00:35:16;;;;;;;13.52;8.50;;;-0.10;99.90;;;;;;5009568;28;20075;-60
2022/03/07 00:37:42;;;;;;;11.32;8.77;;;-0.20;99.90;;;;;;5044723;28;20147;-59
2022/03/07 00:40:10;;;;;;;13.55;8.55;;;-0.20;99.90;;;;;;5042085;28;20049;-59
2022/03/07 00:42:37;;;;;;;16.65;8.55;;;-0.20;99.90;;;;;;5044376;28;20056;-59
2022/03/07 00:45:08;;;;;;;12.68;9.02;;;-0.30;99.90;;;;;;5046578;28;20134;-59
2022/03/07 00:47:34;;;;;;;12.88;7.85;;;-0.30;99.90;;;;;;5040008;28;20053;-59
2022/03/07 00:50:05;;;;;;;11.48;9.02;;;-0.40;99.90;;;;;;5026183;28;20083;-59
2022/03/07 00:52:33;;;;;;;;;;;-0.40;99.90;;;;;;5010076;28;20056;-59
2022/03/07 00:54:59;;;;;;;10.98;7.85;;;-0.40;99.90;;;;;;5026206;28;19928;-59
2022/03/07 00:57:25;;;;;;;12.30;8.57;;;-0.50;99.90;;;;;;5046683;28;20219;-59
2022/03/07 00:59:51;;;;;;;10.52;7.80;;;-0.40;99.90;;;;;;5045701;28;20064;-59
2022/03/07 01:02:17;;;;;;;10.95;8.88;;;-0.50;99.90;;;;;;5046014;28;20114;-59
2022/03/07 01:04:44;;;;;;;11.77;8.23;;;-0.50;99.90;;;;;;5028419;28;20052;-59
2022/03/07 01:07:10;;;;;;;12.30;8.00;;;-0.60;99.90;;;;;;5046498;28;20037;-59
2022/03/07 01:09:36;;;;;;;11.13;8.38;;;-0.60;99.90;;;;;;5044674;28;20717;-59
2022/03/07 01:12:05;;;;;;;14.23;7.65;;;-0.60;99.90;;;;;;5029438;28;20041;-59
2022/03/07 01:14:31;;;;;;;10.35;8.38;;;-0.60;99.90;;;;;;5046007;28;20056;-59
2022/03/07 01:16:57;;;;;;;12.40;6.95;;;-0.70;99.90;;;;;;5044814;28;20060;-59
2022/03/07 01:19:23;;;;;;;14.38;7.80;;;-0.70;99.90;;;;;;5046419;28;20453;-60
2022/03/07 01:21:51;;;;;;;9.90;8.10;;;-0.70;99.90;;;;;;5045150;28;20644;-59
2022/03/07 01:24:19;;;;;;;8.70;7.28;;;-0.70;99.90;;;;;;5045611;28;20594;-59
2022/03/07 01:26:46;;;;;;;12.48;8.38;;;-0.70;99.90;;;;;;5027903;28;20045;-59
2022/03/07 01:29:13;;;;;;;11.25;7.50;;;-0.80;99.90;;;;;;5027931;28;20065;-59
2022/03/07 01:31:39;;;;;;;10.98;7.80;;;-0.80;99.90;;;;;;5046715;28;20053;-60
2022/03/07 01:34:05;;;;;;;10.75;7.57;;;-0.80;99.90;;;;;;5042239;28;20061;-59
2022/03/07 01:36:31;;;;;;;12.15;8.93;;;-0.80;99.90;;;;;;5042676;28;20055;-59
2022/03/07 01:38:57;;;;;;;10.45;7.63;;;-0.90;99.90;;;;;;5026945;28;20049;-59
2022/03/07 01:41:23;;;;;;;13.10;8.35;;;-0.90;99.90;;;;;;5041341;28;20045;-60
2022/03/07 01:43:49;;;;;;;10.98;8.27;;;-0.90;99.90;;;;;;5044824;28;20045;-60
2022/03/07 01:46:15;;;;;;;11.25;7.57;;;-0.90;99.90;;;;;;5045729;28;20137;-60
2022/03/07 01:48:42;;;;;;;12.00;9.18;;;-1.00;99.90;;;;;;5035965;28;20059;-61
2022/03/07 01:51:10;;;;;;;9.95;7.75;;;-1.00;99.90;;;;;;5045937;28;20558;-61
2022/03/07 01:53:38;;;;;;;9.70;8.15;;;-1.00;99.90;;;;;;5011701;28;20041;-60
2022/03/07 01:56:07;;;;;;;9.68;7.32;;;-1.00;99.90;;;;;;5027596;28;20143;-60
2022/03/07 01:58:35;;;;;;;11.63;7.68;;;-1.00;99.90;;;;;;5044494;28;20556;-60
2022/03/07 02:01:02;;;;;;;8.95;7.28;;;-1.00;99.90;;;;;;5043532;28;20124;-60
2022/03/07 02:03:28;;;;;;;11.02;8.05;;;-1.10;99.90;;;;;;5062953;28;20060;-61
2022/03/07 02:05:55;;;;;;;9.68;7.82;;;-1.10;99.90;;;;;;5056181;28;20057;-61
2022/03/07 02:08:24;;;;;;;11.18;7.72;;;-1.10;99.90;;;;;;5060732;28;20045;-63
2022/03/07 02:10:58;;;;;;;10.55;8.00;;;-1.10;99.90;;;;;;5026809;28;20338;-61
2022/03/07 02:13:25;;;;;;;11.93;7.82;;;-1.20;99.90;;;;;;5043959;28;20124;-60
2022/03/07 02:15:57;;;;;;;11.65;7.53;;;-1.20;99.90;;;;;;5027259;28;20052;-60
2022/03/07 02:18:29;;;;;;;13.07;8.63;;;-1.20;99.90;;;;;;5046555;28;20049;-60
2022/03/07 02:21:08;;;;;;;10.00;7.05;;;-1.20;99.90;;;;;;5024173;28;20049;-60
2022/03/07 02:23:35;;;;;;;11.02;7.53;;;-1.20;99.90;;;;;;5028009;28;20579;-60
2022/03/07 02:26:11;;;;;;;11.20;8.00;;;-1.20;99.90;;;;;;5010824;28;20045;-60
2022/03/07 02:28:39;;;;;;;9.75;7.20;;;-1.20;99.90;;;;;;5044156;28;20527;-60
2022/03/07 02:31:06;;;;;;;15.43;8.45;;;-1.30;99.90;;;;;;5044953;28;20376;-60
2022/03/07 02:33:36;;;;;;;10.88;8.02;;;-1.30;99.90;;;;;;5043659;28;20115;-60
2022/03/07 02:36:04;;;;;;;13.52;8.30;;;-1.30;99.90;;;;;;5033935;28;20110;-61
2022/03/07 02:38:30;;;;;;;11.10;8.30;;;-1.30;99.90;;;;;;5027236;28;20048;-60
2022/03/07 02:40:56;;;;;;;16.52;8.82;;;-1.30;99.90;;;;;;5009890;28;20073;-61
2022/03/07 02:43:23;;;;;;;10.38;7.53;;;-1.30;99.90;;;;;;5043447;28;20048;-61
2022/03/07 02:45:51;;;;;;;9.80;7.50;;;-1.40;99.90;;;;;;5040856;28;20144;-59
2022/03/07 02:48:18;;;;;;;11.18;8.75;;;-1.40;99.90;;;;;;5042542;28;20044;-59
2022/03/07 02:50:47;;;;;;;11.32;8.23;;;-1.40;99.90;;;;;;5040505;28;20052;-58
2022/03/07 02:53:14;;;;;;;11.88;8.63;;;-1.40;99.90;;;;;;5043751;28;20060;-59
2022/03/07 02:55:40;;;;;;;9.43;8.10;;;-1.40;99.90;;;;;;5025685;28;20048;-60
2022/03/07 02:58:06;;;;;;;10.82;7.88;;;-1.40;99.90;;;;;;5043716;28;20060;-61
2022/03/07 03:00:33;;;;;;;10.60;8.13;;;-1.50;99.90;;;;;;5052730;28;20059;-60
2022/03/07 03:02:59;;;;;;;9.45;7.80;;;-1.50;99.90;;;;;;5044108;28;20534;-60
2022/03/07 03:05:25;;;;;;;11.25;8.00;;;-1.50;99.90;;;;;;5026045;28;20057;-61
2022/03/07 03:07:51;;;;;;;9.98;7.95;;;-1.50;99.90;;;;;;5044291;28;20059;-61
2022/03/07 03:10:19;;;;;;;10.55;8.75;;;-1.50;99.90;;;;;;5054173;28;20047;-60
2022/03/07 03:12:47;;;;;;;9.68;7.93;;;-1.50;99.90;;;;;;5045475;28;20049;-60
2022/03/07 03:15:14;;;;;;;10.32;8.00;;;-1.70;99.90;;;;;;5044369;28;20514;-61
2022/03/07 03:17:45;;;;;;;13.32;9.27;;;-1.70;99.90;;;;;;5026383;28;20488;-61
2022/03/07 03:20:13;;;;;;;14.23;8.95;;;-1.70;99.90;;;;;;5044471;28;20059;-61
2022/03/07 03:22:40;;;;;;;12.13;9.05;;;-1.60;99.90;;;;;;5043158;28;20045;-61
2022/03/07 03:25:09;;;;;;;10.50;8.45;;;-1.60;99.90;;;;;;5043678;28;20483;-61
2022/03/07 03:27:36;;;;;;;15.57;9.43;;;-1.70;99.90;;;;;;5057421;28;20055;-61
2022/03/07 03:30:07;;;;;;;11.73;8.80;;;-1.70;99.90;;;;;;5063067;28;20048;-61
2022/03/07 03:32:34;;;;;;;12.43;10.18;;;-1.70;99.90;;;;;;5064414;28;20051;-61
2022/03/07 03:35:00;;;;;;;12.85;8.70;;;-1.70;99.90;;;;;;5058113;28;20052;-61
2022/03/07 03:37:26;;;;;;;11.35;8.65;;;-1.70;99.90;;;;;;5043314;28;20392;-61
2022/03/07 03:39:53;;;;;;;14.07;9.00;;;-1.70;99.90;;;;;;5043451;28;20061;-61
2022/03/07 03:42:23;;;;;;;12.05;9.55;;;-1.80;99.90;;;;;;5043572;28;20048;-59
2022/03/07 03:44:50;;;;;;;11.55;9.85;;;-1.80;99.90;;;;;;5043146;28;20049;-59
2022/03/07 03:47:16;;;;;;;13.02;10.52;;;-1.90;99.90;;;;;;5043903;28;20056;-59
2022/03/07 03:49:42;;;;;;;12.82;9.32;;;-1.80;99.90;;;;;;5043306;28;20647;-59
2022/03/07 03:52:09;;;;;;;14.25;10.88;;;-1.80;99.90;;;;;;5044417;28;20724;-59
2022/03/07 03:54:35;;;;;;;13.98;10.10;;;-1.80;99.90;;;;;;5043235;28;20064;-59
2022/03/07 03:57:02;;;;;;;16.38;11.07;;;-1.80;99.90;;;;;;5042667;28;20495;-59
2022/03/07 03:59:28;;;;;;;14.85;11.50;;;-1.80;99.90;;;;;;5009907;28;20107;-59
2022/03/07 04:01:54;;;;;;;14.93;10.27;;;-1.80;99.90;;;;;;5042883;28;20048;-59
2022/03/07 04:04:20;;;;;;;15.27;10.23;;;-1.80;99.90;;;;;;5041353;28;20743;-61
2022/03/07 04:06:46;;;;;;;13.30;9.60;;;-1.90;99.90;;;;;;5041897;28;20049;-61
2022/03/07 04:09:17;;;;;;;12.60;10.00;;;-1.80;99.90;;;;;;5042916;28;20596;-61
2022/03/07 04:11:43;;;;;;;15.05;10.70;;;-1.90;99.90;;;;;;5025513;28;20076;-61
2022/03/07 04:14:10;;;;;;;12.18;9.65;;;-1.90;99.90;;;;;;5053669;28;20056;-61
2022/03/07 04:16:38;;;;;;;13.48;11.43;;;-2.00;99.90;;;;;;5061920;28;20598;-61
2022/03/07 04:19:09;;;;;;;12.65;10.43;;;-2.00;99.90;;;;;;5052919;28;20108;-61
2022/03/07 04:21:37;;;;;;;12.90;9.88;;;-2.00;99.90;;;;;;5018554;28;20067;-61
2022/03/07 04:24:03;;;;;;;12.90;10.20;;;-2.00;99.90;;;;;;5045611;28;20123;-61
2022/03/07 04:26:29;;;;;;;11.65;9.20;;;-2.00;99.90;;;;;;5047478;28;20049;-61
2022/03/07 04:28:55;;;;;;;12.02;10.50;;;-2.00;99.90;;;;;;5046358;28;20175;-61
2022/03/07 04:31:22;;;;;;;15.90;10.55;;;-1.90;99.90;;;;;;5048154;28;20055;-60
2022/03/07 04:33:48;;;;;;;14.13;9.80;;;-1.90;99.90;;;;;;5045833;28;20061;-59
2022/03/07 04:36:17;;;;;;;13.75;10.68;;;-1.90;99.90;;;;;;5046014;28;20056;-59
2022/03/07 04:38:43;;;;;;;15.00;10.20;;;-1.90;99.90;;;;;;5046537;28;20094;-59
2022/03/07 04:41:09;;;;;;;13.15;10.70;;;-1.90;99.90;;;;;;5044021;28;20128;-59
2022/03/07 04:43:35;;;;;;;18.67;11.10;;;-1.90;99.90;;;;;;5046489;28;20815;-59
2022/03/07 04:46:02;;;;;;;15.82;10.50;;;-1.80;99.90;;;;;;5045802;28;20131;-59
2022/03/07 04:48:28;;;;;;;13.30;11.23;;;-1.70;99.90;;;;;;5044607;28;20148;-60
2022/03/07 04:50:54;;;;;;;14.73;10.65;;;-1.80;99.90;;;;;;5046629;28;20064;-59
2022/03/07 04:53:20;;;;;;;15.07;11.35;;;-1.70;99.90;;;;;;5047429;28;20060;-60
2022/03/07 04:55:47;;;;;;;15.65;11.80;;;-1.70;99.90;;;;;;5046158;28;20531;-60
2022/03/07 04:58:13;;;;;;;15.65;11.32;;;-1.70;99.90;;;;;;5027216;28;20392;-59
2022/03/07 05:00:39;;;;;;;14.82;10.70;;;-1.60;99.90;;;;;;5044057;28;20115;-60
2022/03/07 05:03:05;;;;;;;16.05;10.80;;;-1.60;99.90;;;;;;5044629;28;20136;-59
2022/03/07 05:05:31;;;;;;;11.98;10.25;;;-1.60;99.90;;;;;;5045822;28;20052;-59
2022/03/07 05:07:57;;;;;;;14.20;10.25;;;-1.60;99.90;;;;;;5044366;28;20053;-60
2022/03/07 05:10:23;;;;;;;14.18;9.35;;;-1.60;99.90;;;;;;5048682;28;20048;-59
2022/03/07 05:12:49;;;;;;;14.30;9.93;;;-1.70;99.90;;;;;;5043794;28;20088;-60
2022/03/07 05:15:16;;;;;;;11.90;9.80;;;-1.70;99.90;;;;;;5043799;28;20423;-59
2022/03/07 05:17:44;;;;;;;10.70;8.95;;;-1.70;99.90;;;;;;5045365;28;20033;-59
2022/03/07 05:20:11;;;;;;;11.30;9.10;;;-1.70;99.90;;;;;;5043588;28;20157;-61
2022/03/07 05:22:38;;;;;;;14.98;9.82;;;-1.70;99.90;;;;;;5044585;28;20128;-60
2022/03/07 05:25:05;;;;;;;11.10;9.02;;;-1.70;99.90;;;;;;5043684;28;20056;-61
2022/03/07 05:27:32;;;;;;;14.93;10.07;;;-1.70;99.90;;;;;;5043873;28;21274;-61
2022/03/07 05:29:58;;;;;;;16.33;10.82;;;-1.70;99.90;;;;;;5043069;28;20049;-59
2022/03/07 05:32:24;;;;;;;13.68;9.90;;;-1.60;99.90;;;;;;5046414;28;20068;-59
2022/03/07 05:34:50;;;;;;;16.35;11.40;;;-1.50;99.90;;;;;;5045265;28;20067;-60
2022/03/07 05:37:16;;;;;;;15.68;10.98;;;-1.40;99.90;;;;;;5059946;28;20057;-60
2022/03/07 05:39:42;;;;;;;14.85;10.93;;;-1.40;99.90;;;;;;5043674;28;20045;-60
2022/03/07 05:42:08;;;;;;;14.45;10.80;;;-1.40;99.90;;;;;;5044890;28;20404;-60
2022/03/07 05:44:34;;;;;;;12.32;9.88;;;-1.30;99.90;;;;;;5063996;28;20059;-62
2022/03/07 05:47:00;;;;;;;16.10;11.10;;;-1.30;99.90;;;;;;5044851;28;20048;-62
2022/03/07 05:49:26;;;;;;;13.70;10.43;;;-1.20;99.90;;;;;;5046216;28;20086;-62
2022/03/07 05:51:52;;;;;;;14.55;11.48;;;-1.20;99.90;;;;;;5045528;28;20091;-61
2022/03/07 05:54:18;;;;;;;14.98;10.45;;;-1.10;99.90;;;;;;5044105;28;20084;-62
2022/03/07 05:56:45;;;;;;;14.30;10.93;;;-1.10;99.90;;;;;;5046054;28;20056;-62
2022/03/07 05:59:11;;;;;;;15.48;11.00;;;-1.10;99.90;;;;;;5046612;28;20076;-62
2022/03/07 06:01:37;;;;;;;13.23;10.52;;;-1.10;99.90;;;;;;5027979;28;20049;-61
2022/03/07 06:04:03;;;;;;;17.85;10.55;;;-1.10;99.90;;;;;;5042987;28;20126;-60
2022/03/07 06:06:29;;;;;;;16.23;11.05;;;-1.00;99.90;;;;;;5044129;28;20123;-60
2022/03/07 06:08:56;;;;;;;20.17;11.23;;;-1.00;99.90;;;;;;5010231;28;20566;-61
2022/03/07 06:11:22;;;;;;;15.48;11.65;;;-1.00;99.90;;;;;;5043019;28;20056;-61
2022/03/07 06:13:48;;;;;;;14.13;12.23;;;-0.90;99.90;;;;;;5043013;28;20052;-60
2022/03/07 06:16:14;;;;;;;14.48;12.00;;;-0.90;99.90;;;;;;5043365;28;20156;-61
2022/03/07 06:18:41;;;;;;;14.88;11.50;;;-0.90;99.90;;;;;;5045363;28;20098;-62
2022/03/07 06:21:08;;;;;;;16.08;11.77;;;-0.80;99.90;;;;;;5043999;28;20651;-60
2022/03/07 06:23:36;;;;;;;15.98;11.73;;;-0.70;99.90;;;;;;5042983;28;20044;-60
2022/03/07 06:26:05;;;;;;;15.25;11.65;;;-0.70;99.90;;;;;;5043454;28;20671;-60
2022/03/07 06:28:31;;;;;;;16.48;13.05;;;-0.70;99.90;;;;;;5044274;28;20174;-61
2022/03/07 06:30:57;;;;;;;16.65;12.85;;;-0.60;99.90;;;;;;5044401;28;20044;-61
2022/03/07 06:33:23;;;;;;;18.98;14.30;;;-0.60;99.90;;;;;;5044404;28;20052;-60
2022/03/07 06:35:49;;;;;;;18.92;14.63;;;-0.50;99.90;;;;;;5006557;28;20585;-60
2022/03/07 06:38:15;;;;;;;16.85;14.30;;;-0.50;99.90;;;;;;5042805;28;20052;-60
2022/03/07 06:40:42;;;;;;;17.67;13.70;;;-0.50;99.90;;;;;;5041183;28;20052;-62
2022/03/07 06:43:08;;;;;;;18.52;13.98;;;-0.50;99.90;;;;;;5043146;28;20044;-62
2022/03/07 06:45:34;;;;;;;20.02;15.68;;;-0.50;99.90;;;;;;5022357;28;20064;-62
2022/03/07 06:48:00;;;;;;;20.45;16.48;;;-0.40;99.90;;;;;;5036040;28;20746;-62
2022/03/07 06:50:27;;;;;;;25.60;17.15;;;-0.40;99.90;;;;;;5044383;28;20440;-63
2022/03/07 06:52:53;;;;;;;23.13;17.08;;;-0.40;99.90;;;;;;5042549;28;20053;-61
2022/03/07 06:55:19;;;;;;;21.27;15.05;;;-0.30;99.90;;;;;;5043587;28;20119;-61
2022/03/07 06:57:45;;;;;;;21.10;15.05;;;-0.30;99.90;;;;;;5044482;28;20488;-61
2022/03/07 07:00:15;;;;;;;21.75;14.90;;;-0.20;99.90;;;;;;5042308;28;20496;-61
2022/03/07 07:02:41;;;;;;;17.92;14.65;;;-0.20;99.90;;;;;;5043346;28;20057;-61
2022/03/07 07:05:08;;;;;;;21.23;13.85;;;-0.20;99.90;;;;;;5030869;28;20052;-60
2022/03/07 07:07:35;;;;;;;20.13;15.15;;;-0.20;99.90;;;;;;5052029;28;20155;-62
2022/03/07 07:10:04;;;;;;;19.33;14.48;;;-0.20;99.90;;;;;;5028913;28;20052;-61
2022/03/07 07:12:30;;;;;;;19.20;14.65;;;-0.10;99.90;;;;;;5042438;28;20124;-61
2022/03/07 07:14:56;;;;;;;16.02;13.48;;;-0.10;99.90;;;;;;5036424;28;20700;-60
2022/03/07 07:17:22;;;;;;;17.55;14.40;;;0.10;99.90;;;;;;5043229;28;20044;-61
2022/03/07 07:19:48;;;;;;;13.50;11.65;;;0.20;99.90;;;;;;5039640;28;20059;-61
2022/03/07 07:22:15;;;;;;;15.52;11.55;;;0.40;99.90;;;;;;5026064;28;20055;-61
2022/03/07 07:24:42;;;;;;;15.90;12.10;;;0.60;99.90;;;;;;5039839;28;20532;-60
2022/03/07 07:27:08;;;;;;;14.23;10.98;;;0.70;99.90;;;;;;5043369;28;20510;-60
2022/03/07 07:29:35;;;;;;;15.98;11.20;;;0.90;99.90;;;;;;5039743;28;20288;-60
2022/03/07 07:32:02;;;;;;;13.50;10.15;;;1.10;99.90;;;;;;5038643;28;20048;-61
2022/03/07 07:34:28;;;;;;;16.13;14.18;;;1.40;99.90;;;;;;5024873;28;20053;-60
2022/03/07 07:36:54;;;;;;;20.65;15.57;;;1.70;99.90;;;;;;5043745;28;20041;-60
2022/03/07 07:39:20;;;;;;;17.45;13.43;;;2.20;99.90;;;;;;5025873;28;20457;-60
2022/03/07 07:41:47;;;;;;;16.40;14.05;;;2.60;99.90;;;;;;5042090;28;20053;-60
2022/03/07 07:44:13;;;;;;;19.60;15.60;;;3.00;99.90;;;;;;5026066;28;20090;-62
2022/03/07 07:46:39;;;;;;;20.80;15.50;;;3.30;99.90;;;;;;5042520;28;20857;-61
2022/03/07 07:49:05;;;;;;;20.30;15.25;;;3.70;99.90;;;;;;5043531;28;20502;-61
2022/03/07 07:51:32;;;;;;;19.15;14.45;;;4.20;99.90;;;;;;5025495;28;20051;-60
2022/03/07 07:54:00;;;;;;;15.55;13.90;;;4.40;99.90;;;;;;5045184;28;20037;-61
2022/03/07 07:56:26;;;;;;;14.70;13.27;;;4.90;99.90;;;;;;5047542;28;20056;-61
2022/03/07 07:58:52;;;;;;;15.20;12.30;;;5.50;99.90;;;;;;5045921;28;20045;-61
2022/03/07 08:01:19;;;;;;;12.90;11.57;;;5.90;99.90;;;;;;5046364;28;20081;-61
2022/03/07 08:03:45;;;;;;;12.43;10.38;;;6.40;99.90;;;;;;5045985;28;20061;-61
2022/03/07 08:06:11;;;;;;;13.18;9.23;;;7.00;99.90;;;;;;5046988;28;20049;-61
2022/03/07 08:08:37;;;;;;;12.82;9.20;;;7.40;99.90;;;;;;5046577;28;20460;-60
2022/03/07 08:11:03;;;;;;;11.73;8.68;;;7.70;99.90;;;;;;5028636;28;20095;-61
2022/03/07 08:13:29;;;;;;;11.70;8.85;;;8.20;99.90;;;;;;5047242;28;20080;-60
2022/03/07 08:15:55;;;;;;;10.80;9.43;;;8.40;99.90;;;;;;5045319;28;20052;-61
2022/03/07 08:18:22;;;;;;;11.18;8.35;;;8.80;99.90;;;;;;5046820;28;20037;-60
2022/03/07 08:20:48;;;;;;;12.07;9.23;;;9.00;99.90;;;;;;5046556;28;20037;-61
2022/03/07 08:23:14;;;;;;;11.48;7.80;;;9.30;99.90;;;;;;5027932;28;20057;-60
2022/03/07 08:25:40;;;;;;;11.85;8.48;;;9.70;99.90;;;;;;5046861;28;20712;-60
2022/03/07 08:28:06;;;;;;;9.68;7.60;;;9.90;99.90;;;;;;5038218;28;20057;-60
2022/03/07 08:30:34;;;;;;;10.40;7.60;;;10.00;99.90;;;;;;5046084;28;20063;-59
2022/03/07 08:33:01;;;;;;;10.48;7.75;;;9.60;99.90;;;;;;5046634;28;20053;-59
2022/03/07 08:35:27;;;;;;;11.02;6.75;;;8.90;99.90;;;;;;5047032;28;20048;-59
2022/03/07 08:37:54;;;;;;;10.35;7.85;;;8.60;99.90;;;;;;5046742;28;20133;-60
2022/03/07 08:40:22;;;;;;;10.60;9.10;;;8.30;99.90;;;;;;5045355;28;20041;-59
2022/03/07 08:42:49;;;;;;;11.63;8.55;;;8.00;99.90;;;;;;5045299;28;20049;-59
2022/03/07 08:45:15;;;;;;;14.80;10.60;;;7.90;99.90;;;;;;4996276;28;20048;-60
2022/03/07 08:47:42;;;;;;;16.60;12.10;;;8.10;99.90;;;;;;5046290;28;20040;-60
2022/03/07 08:50:11;;;;;;;13.10;9.60;;;8.50;99.90;;;;;;5028183;28;20047;-60
2022/03/07 08:52:38;;;;;;;12.80;8.10;;;9.00;99.90;;;;;;5045007;28;20542;-60
2022/03/07 08:55:06;;;;;;;11.95;8.38;;;9.00;99.90;;;;;;5046390;28;20066;-60
2022/03/07 08:57:32;;;;;;;9.20;7.45;;;9.70;99.90;;;;;;5044715;28;20144;-60
2022/03/07 08:59:58;;;;;;;10.55;7.22;;;10.00;99.90;;;;;;5043820;28;20048;-60
2022/03/07 09:02:24;;;;;;;10.27;7.68;;;10.00;99.90;;;;;;5043676;28;20091;-60
2022/03/07 09:04:50;;;;;;;10.32;7.25;;;10.60;99.90;;;;;;5025480;28;20531;-60
2022/03/07 09:07:16;;;;;;;8.40;6.93;;;11.00;99.90;;;;;;5044408;28;20533;-60
2022/03/07 09:09:42;;;;;;;7.78;6.30;;;11.40;99.90;;;;;;5044172;28;20045;-60
2022/03/07 09:12:09;;;;;;;8.13;6.22;;;11.80;99.90;;;;;;5045572;28;20106;-59
2022/03/07 09:14:35;;;;;;;7.85;6.18;;;12.40;99.90;;;;;;5044998;28;20079;-59
2022/03/07 09:17:02;;;;;;;9.23;6.40;;;12.80;95.20;;;;;;5044323;28;20049;-60
2022/03/07 09:19:29;;;;;;;10.05;6.45;;;12.60;83.00;;;;;;5011184;28;20044;-59
2022/03/07 09:21:55;;;;;;;8.45;5.57;;;12.70;73.20;;;;;;5044048;28;20377;-60
2022/03/07 09:24:22;;;;;;;9.45;4.75;;;13.00;68.40;;;;;;5045515;28;20344;-60
2022/03/07 09:26:48;;;;;;;8.40;4.90;;;13.60;65.70;;;;;;5045085;28;20052;-59
2022/03/07 09:29:14;;;;;;;6.72;4.50;;;13.40;62.50;;;;;;5043683;28;20052;-59
2022/03/07 09:31:41;;;;;;;6.22;4.70;;;13.80;62.50;;;;;;5042468;28;20047;-59
2022/03/07 09:34:08;;;;;;;5.78;3.72;;;13.90;61.00;;;;;;5044536;28;20049;-59
2022/03/07 09:36:36;;;;;;;7.03;4.20;;;14.00;59.30;;;;;;5044187;28;21266;-60
2022/03/07 09:39:04;;;;;;;5.65;3.47;;;14.50;58.20;;;;;;5010682;28;20036;-60
2022/03/07 09:41:30;;;;;;;7.35;4.13;;;14.60;57.00;;;;;;5027462;28;20696;-60
2022/03/07 09:43:57;;;;;;;6.78;3.75;;;15.00;58.60;;;;;;5044928;28;20053;-60
2022/03/07 09:46:23;;;;;;;8.40;4.65;;;14.70;56.60;;;;;;5044876;28;20044;-60
2022/03/07 09:48:50;;;;;;;6.30;4.63;;;15.20;56.40;;;;;;5026945;28;20056;-60
2022/03/07 09:51:16;;;;;;;8.75;4.35;;;15.10;55.00;;;;;;5043409;28;20053;-62
2022/03/07 09:53:42;;;;;;;7.18;4.20;;;14.90;54.10;;;;;;5045479;28;20159;-61
2022/03/07 09:56:09;;;;;;;8.52;4.50;;;15.00;53.80;;;;;;5043897;28;20037;-60
2022/03/07 09:58:35;;;;;;;6.47;3.33;;;15.10;53.90;;;;;;5043775;28;20053;-60
2022/03/07 10:01:10;;;;;;;6.03;3.72;;;15.40;52.80;;;;;;5042957;28;20076;-60
2022/03/07 10:03:36;;;;;;;5.97;4.00;;;14.90;51.30;;;;;;5045390;28;20064;-60
2022/03/07 10:06:10;;;;;;;7.25;4.38;;;15.20;52.90;;;;;;5042334;28;20554;-60
2022/03/07 10:08:36;;;;;;;7.22;4.03;;;15.30;52.90;;;;;;5044413;28;20055;-60
2022/03/07 10:11:10;;;;;;;6.95;3.85;;;14.00;53.80;;;;;;5026833;28;20045;-61
2022/03/07 10:13:36;;;;;;;44.10;39.22;;;13.80;54.50;;;;;;5042664;28;20041;-60
2022/03/07 10:16:05;;;;;;;7.32;3.78;;;13.60;56.60;;;;;;5042195;28;20060;-59
2022/03/07 10:18:33;;;;;;;5.78;3.35;;;13.10;57.20;;;;;;5041951;28;20060;-59
2022/03/07 10:21:01;;;;;;;8.60;5.10;;;12.70;58.30;;;;;;5043048;28;20089;-59
2022/03/07 10:23:28;;;;;;;11.05;8.27;;;13.60;58.50;;;;;;5026857;28;20064;-59
2022/03/07 10:26:09;;;;;;;7.25;2.72;;;14.00;54.90;;;;;;5044339;28;20048;-59
2022/03/07 10:28:36;;;;;;;6.82;3.20;;;13.80;53.90;;;;;;5044654;28;20144;-59
2022/03/07 10:31:17;;;;;;;6.57;2.75;;;14.10;53.30;;;;;;5042623;28;20439;-59
2022/03/07 10:33:45;;;;;;;5.93;2.70;;;14.20;52.70;;;;;;5026958;28;20040;-59
2022/03/07 10:36:11;;;;;;;7.00;4.18;;;14.80;54.60;;;;;;5026637;28;20064;-59
2022/03/07 10:38:38;;;;;;;7.75;4.72;;;15.20;53.10;;;;;;5044973;28;20555;-59
2022/03/07 10:41:04;;;;;;;6.53;3.03;;;15.20;51.20;;;;;;5044188;28;20102;-59
2022/03/07 10:43:31;;;;;;;4.70;2.53;;;15.10;49.60;;;;;;5043095;28;20048;-60
2022/03/07 10:46:00;;;;;;;7.28;2.83;;;16.20;48.60;;;;;;5044260;28;20797;-59
2022/03/07 10:48:38;;;;;;;4.40;2.78;;;15.20;47.80;;;;;;5043077;28;20500;-59
2022/03/07 10:51:05;;;;;;;10.45;8.10;;;15.30;49.40;;;;;;5042278;28;20049;-59
2022/03/07 10:53:40;;;;;;;7.03;3.95;;;14.30;50.10;;;;;;5043105;28;20049;-59
2022/03/07 10:56:07;;;;;;;6.55;3.67;;;14.00;51.10;;;;;;5043540;28;20056;-59
2022/03/07 10:58:33;;;;;;;7.60;3.47;;;14.40;50.90;;;;;;5025110;28;20048;-59
2022/03/07 11:01:01;;;;;;;5.88;3.80;;;15.00;49.90;;;;;;5041571;28;20049;-59
2022/03/07 11:03:29;;;;;;;7.97;4.75;;;15.60;48.40;;;;;;5040959;28;20079;-59
2022/03/07 11:05:56;;;;;;;5.50;2.83;;;15.60;48.50;;;;;;5038971;28;20045;-59
2022/03/07 11:08:23;;;;;;;5.35;3.10;;;16.50;47.20;;;;;;5040198;28;20040;-59
2022/03/07 11:10:52;;;;;;;8.38;3.83;;;16.90;45.10;;;;;;5039708;28;20127;-58
2022/03/07 11:13:29;;;;;;;5.25;2.35;;;17.00;44.80;;;;;;5039456;28;20041;-60
2022/03/07 11:16:04;;;;;;;4.18;2.50;;;17.30;43.90;;;;;;5042158;28;20072;-59
2022/03/07 11:18:31;;;;;;;5.90;4.03;;;17.40;42.00;;;;;;5025260;28;20041;-59
2022/03/07 11:21:00;;;;;;;4.75;2.38;;;17.40;42.80;;;;;;5021894;28;20068;-59
2022/03/07 11:23:26;;;;;;;4.63;2.65;;;17.00;42.70;;;;;;5042709;28;20053;-59
2022/03/07 11:25:55;;;;;;;5.18;2.90;;;16.20;43.70;;;;;;5043625;28;20077;-58
2022/03/07 11:28:25;;;;;;;5.63;2.67;;;16.00;44.60;;;;;;5041977;28;20411;-58
2022/03/07 11:30:52;;;;;;;5.22;2.53;;;15.20;45.60;;;;;;5041521;28;20044;-58
2022/03/07 11:33:25;;;;;;;4.45;2.58;;;14.20;47.30;;;;;;5042444;28;20075;-58
2022/03/07 11:35:53;;;;;;;5.25;2.33;;;13.90;49.00;;;;;;5039562;28;20866;-58
2022/03/07 11:38:23;;;;;;;4.35;2.25;;;13.80;49.60;;;;;;5043818;28;20055;-59
2022/03/07 11:41:23;;;;;;;4.97;2.55;;;15.20;48.40;;;;;;5041525;28;20152;-58
2022/03/07 11:44:10;;;;;;;3.90;2.42;;;16.30;46.40;;;;;;5035657;28;20079;-58
2022/03/07 11:46:44;;;;;;;7.00;3.42;;;16.60;43.80;;;;;;5040133;28;20082;-59
2022/03/07 11:49:22;;;;;;;5.75;2.78;;;17.50;43.60;;;;;;5037674;28;20048;-59
2022/03/07 11:51:57;;;;;;;4.70;1.98;;;18.10;42.60;;;;;;5037016;28;20102;-59
2022/03/07 11:54:23;;;;;;;4.72;2.75;;;18.60;41.30;;;;;;5039273;28;20492;-59
2022/03/07 11:56:50;;;;;;;4.60;3.00;;;18.20;42.00;;;;;;5041437;28;20129;-58
2022/03/07 11:59:16;;;;;;;3.90;2.15;;;18.50;41.60;;;;;;5023074;28;20679;-59
2022/03/07 12:01:52;;;;;;;3.50;1.90;;;18.70;40.70;;;;;;5038526;28;20052;-59
2022/03/07 12:04:19;;;;;;;6.82;4.13;;;18.30;38.60;;;;;;5040019;28;20064;-59
2022/03/07 12:06:48;;;;;;;3.95;1.80;;;19.00;39.80;;;;;;5037493;28;20059;-59
2022/03/07 12:09:32;;;;;;;7.10;4.70;;;19.10;37.20;;;;;;5037487;28;20528;-59
2022/03/07 12:12:05;;;;;;;3.85;2.33;;;18.10;38.20;;;;;;5037281;28;20120;-58
2022/03/07 12:14:37;;;;;;;6.00;3.28;;;18.20;38.60;;;;;;5039139;28;20068;-59
2022/03/07 12:17:23;;;;;;;5.28;1.92;;;18.40;39.10;;;;;;5035011;28;20041;-58
2022/03/07 12:19:58;;;;;;;2.95;2.05;;;18.30;38.10;;;;;;5036307;28;20049;-59
2022/03/07 12:22:29;;;;;;;5.95;3.15;;;18.60;38.40;;;;;;5036080;28;20046;-56
2022/03/07 12:25:00;;;;;;;2.90;1.90;;;18.80;38.00;;;;;;5051476;28;20052;-56
2022/03/07 12:27:26;;;;;;;2.65;1.85;;;19.50;36.60;;;;;;5048701;28;20118;-59
2022/03/07 12:29:53;;;;;;;3.97;2.20;;;19.20;37.90;;;;;;5038115;28;20049;-60
2022/03/07 12:32:20;;;;;;;4.82;2.38;;;19.40;38.20;;;;;;5051725;28;20041;-58
2022/03/07 12:34:47;;;;;;;3.53;2.20;;;19.70;36.90;;;;;;5037989;28;20583;-58
2022/03/07 12:37:21;;;;;;;4.82;2.50;;;19.50;37.70;;;;;;5036857;28;20573;-59
2022/03/07 12:39:51;;;;;;;4.45;2.83;;;19.40;36.70;;;;;;5038833;28;20053;-59